SJQT weather

Fazenda Haras RPC Airport
Nova Lima, Minas Gerais, Brazil

Public forecast

Using degrees Celsius for public forecast. Weather courtesy of forecast.io.

METAR (pilot weather report)

Closest report is Carlos Prates Airport, 16.0 nm (29.6 km) NNW. Retrieved 2019/09/22 11:00 UTC (2 hours ago):

SBPR 221100Z 10012KT CAVOK ///// Q1021

TAF (pilot weather forecast)

Forecast is more than 12 hours old.

Closest forecast is Pampulha - Carlos Drummond de Andrade Airport, 19.1 nm (35.4 km) N. Retrieved 2012/03/26 18:12 UTC (7 years ago):

TAF SBBH 261639Z 2618/2706 09005KT 9999 SCT030 TX28/2618Z TN20/2705Z PROB30 2619/2624 8000 TSRA BKN035 FEW045CB RMK PGG